createdAt,value
2023-08-12T00:02:07.165Z,8.23
2023-08-12T00:04:37.259Z,11.10
2023-08-12T00:07:06.082Z,9.67
2023-08-12T00:09:34.831Z,11.47
2023-08-12T00:12:03.564Z,11.07
2023-08-12T00:14:32.337Z,10.33
2023-08-12T00:17:01.101Z,10.43
2023-08-12T00:19:29.757Z,10.17
2023-08-12T00:21:59.858Z,9.93
2023-08-12T00:24:28.540Z,9.63
2023-08-12T00:26:57.233Z,10.40
2023-08-12T00:29:26.009Z,10.07
2023-08-12T00:31:55.650Z,10.00
2023-08-12T00:34:24.381Z,10.57
2023-08-12T00:36:53.102Z,10.63
2023-08-12T00:39:23.802Z,10.60
2023-08-12T00:41:52.571Z,10.67
2023-08-12T00:44:21.398Z,10.33
2023-08-12T00:46:51.689Z,10.00
2023-08-12T00:49:20.835Z,10.50
2023-08-12T00:51:51.778Z,9.63
2023-08-12T00:54:23.710Z,10.17
2023-08-12T00:56:54.143Z,9.27
2023-08-12T00:59:24.287Z,8.63
2023-08-12T01:01:53.160Z,8.90
2023-08-12T01:04:21.907Z,8.47
2023-08-12T01:06:50.641Z,9.33
2023-08-12T01:09:19.539Z,9.73
2023-08-12T01:11:56.527Z,10.50
2023-08-12T01:14:29.516Z,10.30
2023-08-12T01:17:03.428Z,9.20
2023-08-12T01:19:36.564Z,9.53
2023-08-12T01:22:07.925Z,9.37
2023-08-12T01:24:43.108Z,9.37
2023-08-12T01:27:13.369Z,10.27
2023-08-12T01:29:45.539Z,8.83
2023-08-12T01:32:22.839Z,8.40
2023-08-12T01:34:56.953Z,8.80
2023-08-12T01:37:30.152Z,9.73
2023-08-12T01:40:05.396Z,7.87
2023-08-12T01:42:35.589Z,8.07
2023-08-12T01:45:04.870Z,9.83
2023-08-12T01:47:34.351Z,8.63
2023-08-12T01:50:03.125Z,7.90
2023-08-12T01:52:31.897Z,8.30
2023-08-12T01:55:02.030Z,7.80
2023-08-12T01:57:30.791Z,9.10
2023-08-12T01:59:59.514Z,8.23
2023-08-12T02:02:28.306Z,7.80
2023-08-12T02:04:57.126Z,7.80
2023-08-12T02:07:26.378Z,8.30
2023-08-12T02:09:55.130Z,8.30
2023-08-12T02:12:25.286Z,8.17
2023-08-12T02:14:54.001Z,8.10
2023-08-12T02:17:22.759Z,8.10
2023-08-12T02:19:51.455Z,9.00
2023-08-12T02:22:20.205Z,8.80
2023-08-12T02:24:48.975Z,8.97
2023-08-12T02:27:17.723Z,7.83
2023-08-12T02:29:47.952Z,9.07
2023-08-12T02:32:16.715Z,8.97
2023-08-12T02:34:45.492Z,8.33
2023-08-12T02:37:14.955Z,9.27
2023-08-12T02:39:43.758Z,8.70
2023-08-12T02:42:12.532Z,8.43
2023-08-12T02:44:41.278Z,8.83
2023-08-12T02:47:11.672Z,8.33
2023-08-12T02:49:40.678Z,8.73
2023-08-12T02:52:09.467Z,9.90
2023-08-12T02:54:38.218Z,9.00
2023-08-12T02:57:07.043Z,9.00
2023-08-12T02:59:35.838Z,9.33
2023-08-12T03:02:05.160Z,8.67
2023-08-12T03:04:35.431Z,8.60
2023-08-12T03:07:04.844Z,8.50
2023-08-12T03:09:33.655Z,9.10
2023-08-12T03:12:03.931Z,8.50
2023-08-12T03:14:33.701Z,8.30
2023-08-12T03:17:02.464Z,8.47
2023-08-12T03:19:31.220Z,8.27
2023-08-12T03:22:01.353Z,9.50
2023-08-12T03:24:30.128Z,9.17
2023-08-12T03:26:58.855Z,8.93
2023-08-12T03:29:27.547Z,8.73
2023-08-12T03:31:56.260Z,8.90
2023-08-12T03:34:25.010Z,8.80
2023-08-12T03:36:53.771Z,10.00
2023-08-12T03:39:23.861Z,10.20
2023-08-12T03:41:54.072Z,9.90
2023-08-12T03:44:22.821Z,9.30
2023-08-12T03:46:51.588Z,9.90
2023-08-12T03:49:22.475Z,8.37
2023-08-12T03:51:51.421Z,9.20
2023-08-12T03:54:22.759Z,8.03
2023-08-12T03:56:51.527Z,8.27
2023-08-12T03:59:20.277Z,7.93
2023-08-12T04:01:49.083Z,8.50
2023-08-12T04:04:17.797Z,8.70
2023-08-12T04:06:46.467Z,8.77
2023-08-12T04:09:15.209Z,9.70
2023-08-12T04:11:45.404Z,9.10
2023-08-12T04:14:14.162Z,8.57
2023-08-12T04:16:42.988Z,8.17
2023-08-12T04:19:11.802Z,8.57
2023-08-12T04:21:40.589Z,8.60
2023-08-12T04:24:10.540Z,7.57
2023-08-12T04:26:39.367Z,8.83
2023-08-12T04:29:09.566Z,8.27
2023-08-12T04:31:38.340Z,8.53
2023-08-12T04:34:07.357Z,7.77
2023-08-12T04:36:36.131Z,10.07
2023-08-12T04:39:05.304Z,7.73
2023-08-12T04:41:34.574Z,8.20
2023-08-12T04:44:03.343Z,7.83
2023-08-12T04:46:33.789Z,8.93
2023-08-12T04:49:02.620Z,9.10
2023-08-12T04:51:31.752Z,8.53
2023-08-12T04:54:02.202Z,7.00
2023-08-12T04:56:31.228Z,7.10
2023-08-12T04:59:00.034Z,7.17
2023-08-12T05:01:28.877Z,7.63
2023-08-12T05:03:59.083Z,6.83
2023-08-12T05:06:27.937Z,6.50
2023-08-12T05:08:56.745Z,6.70
2023-08-12T05:11:25.559Z,6.70
2023-08-12T05:13:54.306Z,6.50
2023-08-12T05:16:23.109Z,6.80
2023-08-12T05:18:52.014Z,8.47
2023-08-12T05:21:22.099Z,5.87
2023-08-12T05:23:50.976Z,5.20
2023-08-12T05:26:21.343Z,5.20
2023-08-12T05:28:50.104Z,4.80
2023-08-12T05:31:18.926Z,5.10
2023-08-12T05:33:47.817Z,4.43
2023-08-12T05:36:16.650Z,3.90
2023-08-12T05:38:46.803Z,5.03
2023-08-12T05:41:15.643Z,4.00
2023-08-12T05:43:45.230Z,3.53
2023-08-12T05:46:14.132Z,4.17
2023-08-12T05:48:42.896Z,3.87
2023-08-12T05:51:11.721Z,4.83
2023-08-12T05:53:40.925Z,4.23
2023-08-12T05:56:11.098Z,3.83
2023-08-12T05:58:39.940Z,3.67
2023-08-12T06:01:08.855Z,4.50
2023-08-12T06:03:37.672Z,3.70
2023-08-12T06:06:06.600Z,4.17
2023-08-12T06:08:35.436Z,3.90
2023-08-12T06:11:04.327Z,4.63
2023-08-12T06:13:34.550Z,4.40
2023-08-12T06:16:03.502Z,4.10
2023-08-12T06:18:32.278Z,3.47
2023-08-12T06:21:01.006Z,3.70
2023-08-12T06:23:30.968Z,3.93
2023-08-12T06:25:59.789Z,3.80
2023-08-12T06:28:28.570Z,3.57
2023-08-12T06:30:58.901Z,3.73
2023-08-12T06:33:27.688Z,4.03
2023-08-12T06:35:56.463Z,4.20
2023-08-12T06:38:25.201Z,4.20
2023-08-12T06:40:54.335Z,4.50
2023-08-12T06:43:23.144Z,4.27
2023-08-12T06:45:51.930Z,4.40
2023-08-12T06:48:22.106Z,3.90
2023-08-12T06:50:56.608Z,3.53
2023-08-12T06:53:25.517Z,3.80
2023-08-12T06:55:54.307Z,4.10
2023-08-12T06:58:23.402Z,3.97
2023-08-12T07:00:53.662Z,5.17
2023-08-12T07:03:24.110Z,3.47
2023-08-12T07:05:52.918Z,3.47
2023-08-12T07:08:21.696Z,3.30
2023-08-12T07:10:50.531Z,3.83
2023-08-12T07:13:19.298Z,3.77
2023-08-12T07:15:48.110Z,3.97
2023-08-12T07:18:16.984Z,4.47
2023-08-12T07:20:47.128Z,3.70
2023-08-12T07:23:15.922Z,4.13
2023-08-12T07:25:44.704Z,3.90
2023-08-12T07:28:13.404Z,4.20
2023-08-12T07:30:42.163Z,3.90
2023-08-12T07:33:10.979Z,4.07
2023-08-12T07:35:39.796Z,3.90
2023-08-12T07:38:10.120Z,4.40
2023-08-12T07:40:41.198Z,4.33
2023-08-12T07:43:11.075Z,4.27
2023-08-12T07:45:39.906Z,5.33
2023-08-12T07:48:08.845Z,4.67
2023-08-12T07:50:37.950Z,4.57
2023-08-12T07:53:08.346Z,4.63
2023-08-12T07:55:37.649Z,5.00
2023-08-12T07:58:06.720Z,4.00
2023-08-12T08:00:35.949Z,4.33
2023-08-12T08:03:04.888Z,5.17
2023-08-12T08:05:33.686Z,5.10
2023-08-12T08:08:02.791Z,5.37
2023-08-12T08:10:33.004Z,4.23
2023-08-12T08:13:01.976Z,3.73
2023-08-12T08:15:31.023Z,4.07
2023-08-12T08:20:30.861Z,4.60
2023-08-12T08:22:59.789Z,4.13
2023-08-12T08:25:28.587Z,4.67
2023-08-12T08:27:59.175Z,4.30
2023-08-12T08:30:28.046Z,3.90
2023-08-12T08:32:57.066Z,4.60
2023-08-12T08:35:26.006Z,4.33
2023-08-12T08:37:56.477Z,4.73
2023-08-12T08:40:25.510Z,4.10
2023-08-12T08:43:00.113Z,4.13
2023-08-12T08:45:30.103Z,4.57
2023-08-12T08:47:59.321Z,4.50
2023-08-12T08:50:28.510Z,4.17
2023-08-12T08:52:59.212Z,3.40
2023-08-12T08:55:28.021Z,4.43
2023-08-12T08:58:05.513Z,4.20
2023-08-12T09:00:34.781Z,3.60
2023-08-12T09:03:05.089Z,5.40
2023-08-12T09:05:34.796Z,4.27
2023-08-12T09:08:07.782Z,4.20
2023-08-12T09:10:38.616Z,4.27
2023-08-12T09:13:10.188Z,4.00
2023-08-12T09:15:39.224Z,3.40
2023-08-12T09:18:08.373Z,3.80
2023-08-12T09:20:37.270Z,3.80
2023-08-12T09:23:10.078Z,4.17
2023-08-12T09:25:43.342Z,3.97
2023-08-12T09:28:13.868Z,3.70
2023-08-12T09:30:42.632Z,3.00
2023-08-12T09:33:12.537Z,3.33
2023-08-12T09:35:43.567Z,3.10
2023-08-12T09:38:15.286Z,3.10
2023-08-12T09:40:44.365Z,3.13
2023-08-12T09:43:14.653Z,3.13
2023-08-12T09:45:46.433Z,3.57
2023-08-12T09:48:17.599Z,3.20
2023-08-12T09:50:47.251Z,3.17
2023-08-12T09:53:17.314Z,2.93
2023-08-12T09:55:49.736Z,2.97
2023-08-12T09:58:22.648Z,3.10
2023-08-12T10:00:52.398Z,3.33
2023-08-12T10:03:22.561Z,3.10
2023-08-12T10:05:52.331Z,2.87
2023-08-12T10:08:21.783Z,3.00
2023-08-12T10:11:03.258Z,2.63
2023-08-12T10:13:42.337Z,2.97
2023-08-12T10:16:12.741Z,3.47
2023-08-12T10:18:42.347Z,3.33
2023-08-12T10:21:14.662Z,3.17
2023-08-12T10:23:47.722Z,2.60
2023-08-12T10:26:19.293Z,3.90
2023-08-12T10:28:52.945Z,3.23
2023-08-12T10:31:22.811Z,3.30
2023-08-12T10:33:51.828Z,3.00
2023-08-12T10:36:21.311Z,2.83
2023-08-12T10:38:53.488Z,2.67
2023-08-12T10:41:23.469Z,2.57
2023-08-12T10:43:57.932Z,2.50
2023-08-12T10:46:32.172Z,2.90
2023-08-12T10:49:06.925Z,3.83
2023-08-12T10:51:49.249Z,2.27
2023-08-12T10:54:19.416Z,2.80
2023-08-12T10:57:15.873Z,2.40
2023-08-12T11:00:00.861Z,3.30
2023-08-12T11:02:31.679Z,2.13
2023-08-12T11:05:04.507Z,2.60
2023-08-12T11:07:40.038Z,2.07
2023-08-12T11:10:14.064Z,2.10
2023-08-12T11:12:44.308Z,2.43
2023-08-12T11:15:14.656Z,2.07
2023-08-12T11:17:44.224Z,2.50
2023-08-12T11:20:13.994Z,2.57
2023-08-12T11:22:43.924Z,2.43
2023-08-12T11:25:15.016Z,1.97
2023-08-12T11:27:45.319Z,1.93
2023-08-12T11:30:17.228Z,2.10
2023-08-12T11:32:47.215Z,2.40
2023-08-12T11:35:19.271Z,1.90
2023-08-12T11:37:50.141Z,2.10
2023-08-12T11:40:22.271Z,2.90
2023-08-12T11:42:52.736Z,2.33
2023-08-12T11:45:26.264Z,3.50
2023-08-12T11:47:56.380Z,2.40
2023-08-12T11:50:27.938Z,1.97
2023-08-12T11:52:59.643Z,2.57
2023-08-12T11:55:28.853Z,2.33
2023-08-12T11:57:57.939Z,2.80
2023-08-12T12:00:28.536Z,2.30
2023-08-12T12:02:58.619Z,2.60
2023-08-12T12:05:30.808Z,2.30
2023-08-12T12:08:00.913Z,2.63
2023-08-12T12:10:34.492Z,2.63
2023-08-12T12:13:05.679Z,2.63
2023-08-12T12:15:43.634Z,3.70
2023-08-12T12:18:13.430Z,2.77
2023-08-12T12:20:56.779Z,2.13
2023-08-12T12:23:29.580Z,2.60
2023-08-12T12:26:01.590Z,2.87
2023-08-12T12:28:30.503Z,3.00
2023-08-12T12:31:00.677Z,3.20
2023-08-12T12:33:29.533Z,2.73
2023-08-12T12:36:00.538Z,2.83
2023-08-12T12:38:30.670Z,2.73
2023-08-12T12:40:59.398Z,2.57
2023-08-12T12:43:28.222Z,2.57
2023-08-12T12:45:56.929Z,2.60
2023-08-12T12:48:27.069Z,2.40
2023-08-12T12:50:55.797Z,2.33
2023-08-12T12:53:24.506Z,2.40
2023-08-12T12:55:53.262Z,2.97
2023-08-12T12:58:24.388Z,2.30
2023-08-12T13:00:53.106Z,2.87
2023-08-12T13:03:22.064Z,2.50
2023-08-12T13:05:52.926Z,2.27
2023-08-12T13:08:22.016Z,1.90
2023-08-12T13:10:50.913Z,3.17
2023-08-12T13:13:20.053Z,2.73
2023-08-12T13:15:49.042Z,3.00
2023-08-12T13:18:17.864Z,2.87
2023-08-12T13:20:48.783Z,2.80
2023-08-12T13:23:19.019Z,2.53
2023-08-12T13:25:50.855Z,2.73
2023-08-12T13:28:19.794Z,2.17
2023-08-12T13:30:48.507Z,2.10
2023-08-12T13:33:17.157Z,2.53
2023-08-12T13:35:45.874Z,2.63
2023-08-12T13:38:14.612Z,2.67
2023-08-12T13:40:44.693Z,2.87
2023-08-12T13:43:13.367Z,2.60
2023-08-12T13:45:42.087Z,2.70
2023-08-12T13:48:10.924Z,2.40
2023-08-12T13:50:39.692Z,2.00
2023-08-12T13:53:08.424Z,1.90
2023-08-12T13:55:37.170Z,1.97
2023-08-12T13:58:07.363Z,2.63
2023-08-12T14:00:36.036Z,2.50
2023-08-12T14:03:05.210Z,2.03
2023-08-12T14:05:34.009Z,1.60
2023-08-12T14:08:02.777Z,1.97
2023-08-12T14:10:31.500Z,1.90
2023-08-12T14:13:00.202Z,2.30
2023-08-12T14:15:30.365Z,2.40
2023-08-12T14:17:59.162Z,3.03
2023-08-12T14:20:28.039Z,3.30
2023-08-12T14:22:56.738Z,2.40
2023-08-12T14:25:25.563Z,2.50
2023-08-12T14:27:54.287Z,2.80
2023-08-12T14:30:27.235Z,2.73
2023-08-12T14:32:57.708Z,2.90
2023-08-12T14:35:26.930Z,2.50
2023-08-12T14:37:55.677Z,2.97
2023-08-12T14:40:24.363Z,3.80
2023-08-12T14:42:53.061Z,2.90
2023-08-12T14:45:21.911Z,3.47
2023-08-12T14:47:50.693Z,3.00
2023-08-12T14:50:20.939Z,2.97
2023-08-12T14:52:49.632Z,3.70
2023-08-12T14:55:18.544Z,3.00
2023-08-12T14:57:47.256Z,2.73
2023-08-12T15:00:16.721Z,3.47
2023-08-12T15:02:45.482Z,3.20
2023-08-12T15:05:14.466Z,3.70
2023-08-12T15:07:44.715Z,3.13
2023-08-12T15:10:13.443Z,3.90
2023-08-12T15:12:42.114Z,3.90
2023-08-12T15:15:11.315Z,3.50
2023-08-12T15:17:40.034Z,3.63
2023-08-12T15:20:11.527Z,4.00
2023-08-12T15:22:40.390Z,3.53
2023-08-12T15:25:11.160Z,3.60
2023-08-12T15:27:39.870Z,3.93
2023-08-12T15:30:09.585Z,3.03
2023-08-12T15:32:42.728Z,4.43
2023-08-12T15:35:12.182Z,3.70
2023-08-12T15:37:40.997Z,3.50
2023-08-12T15:40:12.661Z,3.77
2023-08-12T15:42:41.432Z,5.70
2023-08-12T15:45:12.479Z,4.90
2023-08-12T15:47:41.365Z,3.60
2023-08-12T15:50:10.818Z,6.10
2023-08-12T15:52:39.621Z,5.80
2023-08-12T15:55:10.220Z,7.30
2023-08-12T15:57:38.952Z,6.60
2023-08-12T16:00:09.514Z,7.63
2023-08-12T16:02:38.337Z,13.63
2023-08-12T16:05:08.191Z,7.77
2023-08-12T16:07:37.037Z,5.53
2023-08-12T16:10:07.069Z,6.70
2023-08-12T16:12:37.588Z,6.43
2023-08-12T16:15:07.162Z,4.73
2023-08-12T16:17:35.874Z,4.63
2023-08-12T16:20:05.256Z,6.90
2023-08-12T16:22:33.985Z,7.47
2023-08-12T16:25:03.197Z,14.80
2023-08-12T16:27:31.869Z,4.83
2023-08-12T16:30:02.461Z,5.80
2023-08-12T16:32:31.144Z,5.20
2023-08-12T16:34:59.926Z,3.93
2023-08-12T16:37:28.640Z,4.80
2023-08-12T16:39:57.795Z,4.50
2023-08-12T16:42:26.508Z,4.13
2023-08-12T16:44:55.293Z,3.40
2023-08-12T16:47:26.819Z,4.03
2023-08-12T16:49:55.679Z,5.10
2023-08-12T16:52:24.566Z,3.30
2023-08-12T16:54:53.278Z,3.20
2023-08-12T16:57:21.984Z,3.33
2023-08-12T16:59:50.679Z,3.30
2023-08-12T17:02:19.479Z,3.00
2023-08-12T17:04:49.639Z,3.17
2023-08-12T17:07:18.429Z,3.50
2023-08-12T17:09:47.949Z,3.00
2023-08-12T17:12:17.011Z,4.10
2023-08-12T17:14:45.858Z,4.77
2023-08-12T17:17:14.582Z,3.90
2023-08-12T17:19:43.761Z,4.00
2023-08-12T17:22:14.067Z,4.13
2023-08-12T17:24:42.984Z,4.03
2023-08-12T17:27:11.690Z,4.50
2023-08-12T17:29:40.501Z,4.30
2023-08-12T17:32:09.318Z,4.53
2023-08-12T17:34:38.052Z,4.50
2023-08-12T17:37:08.668Z,4.20
2023-08-12T17:39:39.785Z,3.83
2023-08-12T17:42:08.637Z,4.60
2023-08-12T17:44:37.384Z,5.57
2023-08-12T17:47:06.265Z,4.93
2023-08-12T17:49:35.062Z,5.57
2023-08-12T17:52:03.763Z,4.67
2023-08-12T17:54:32.550Z,4.90
2023-08-12T17:57:02.659Z,4.03
2023-08-12T17:59:31.380Z,4.60
2023-08-12T18:02:00.107Z,5.20
2023-08-12T18:04:28.921Z,4.47
2023-08-12T18:06:57.694Z,4.97
2023-08-12T18:09:26.778Z,4.17
2023-08-12T18:11:55.609Z,5.13
2023-08-12T18:14:25.891Z,4.50
2023-08-12T18:16:54.770Z,4.13
2023-08-12T18:19:23.581Z,3.90
2023-08-12T18:21:52.357Z,3.67
2023-08-12T18:24:21.072Z,3.90
2023-08-12T18:26:50.026Z,3.70
2023-08-12T18:29:18.833Z,3.80
2023-08-12T18:31:48.900Z,3.30
2023-08-12T18:34:17.660Z,3.63
2023-08-12T18:36:46.401Z,3.90
2023-08-12T18:39:15.108Z,3.03
2023-08-12T18:41:43.810Z,3.60
2023-08-12T18:44:13.074Z,3.50
2023-08-12T18:46:41.818Z,3.27
2023-08-12T18:49:12.018Z,4.40
2023-08-12T18:51:40.720Z,4.37
2023-08-12T18:54:09.537Z,3.20
2023-08-12T18:56:38.282Z,3.57
2023-08-12T18:59:07.279Z,3.60
2023-08-12T19:01:36.063Z,3.10
2023-08-12T19:04:06.057Z,3.20
2023-08-12T19:06:36.211Z,5.40
2023-08-12T19:09:04.953Z,3.40
2023-08-12T19:11:33.654Z,2.87
2023-08-12T19:14:02.542Z,3.50
2023-08-12T19:16:31.237Z,2.80
2023-08-12T19:19:00.032Z,3.90
2023-08-12T19:21:28.744Z,3.47
2023-08-12T19:23:59.001Z,2.50
2023-08-12T19:26:27.725Z,2.67
2023-08-12T19:28:56.661Z,2.73
2023-08-12T19:31:25.391Z,2.80
2023-08-12T19:33:54.281Z,3.67
2023-08-12T19:36:23.357Z,3.27
2023-08-12T19:38:52.053Z,2.80
2023-08-12T19:41:22.209Z,3.10
2023-08-12T19:43:50.925Z,3.73
2023-08-12T19:46:19.726Z,3.50
2023-08-12T19:48:48.541Z,4.33
2023-08-12T19:51:17.285Z,3.57
2023-08-12T19:53:48.133Z,2.90
2023-08-12T19:56:17.216Z,3.90
2023-08-12T19:58:47.285Z,2.80
2023-08-12T20:01:16.050Z,2.47
2023-08-12T20:03:44.843Z,3.10
2023-08-12T20:06:13.699Z,2.87
2023-08-12T20:08:42.353Z,3.20
2023-08-12T20:11:11.725Z,2.40
2023-08-12T20:13:40.461Z,2.87
2023-08-12T20:16:10.632Z,2.80
2023-08-12T20:18:39.952Z,2.90
2023-08-12T20:21:09.476Z,2.33
2023-08-12T20:23:38.217Z,2.20
2023-08-12T20:26:07.210Z,2.40
2023-08-12T20:28:35.902Z,2.67
2023-08-12T20:31:04.589Z,2.23
2023-08-12T20:33:34.755Z,2.60
2023-08-12T20:36:03.994Z,2.47
2023-08-12T20:38:32.729Z,2.33
2023-08-12T20:41:01.481Z,2.07
2023-08-12T20:43:30.213Z,2.50
2023-08-12T20:45:59.025Z,2.27
2023-08-12T20:49:57.388Z,3.47
2023-08-12T20:52:27.375Z,2.17
2023-08-12T20:54:56.123Z,2.57
2023-08-12T20:57:25.020Z,2.30
2023-08-12T20:59:53.777Z,2.20
2023-08-12T21:02:22.592Z,1.47
2023-08-12T21:04:51.980Z,2.40
2023-08-12T21:07:20.705Z,1.97
2023-08-12T21:09:50.777Z,2.00
2023-08-12T21:12:19.533Z,2.50
2023-08-12T21:14:48.375Z,1.70
2023-08-12T21:17:17.110Z,1.90
2023-08-12T21:19:45.901Z,2.23
2023-08-12T21:22:15.522Z,2.00
2023-08-12T21:24:44.459Z,2.20
2023-08-12T21:27:14.665Z,2.63
2023-08-12T21:29:43.417Z,2.27
2023-08-12T21:32:12.289Z,2.00
2023-08-12T21:34:41.200Z,1.70
2023-08-12T21:37:10.059Z,1.90
2023-08-12T21:39:38.843Z,1.57
2023-08-12T21:42:08.008Z,1.50
2023-08-12T21:44:38.080Z,2.03
2023-08-12T21:47:07.404Z,2.60
2023-08-12T21:49:36.148Z,2.07
2023-08-12T21:52:05.058Z,2.10
2023-08-12T21:54:33.823Z,1.87
2023-08-12T21:57:02.533Z,2.07
2023-08-12T21:59:31.351Z,2.07
2023-08-12T22:02:04.101Z,2.00
2023-08-12T22:04:33.514Z,2.33
2023-08-12T22:07:02.221Z,1.93
2023-08-12T22:09:34.678Z,1.97
2023-08-12T22:12:02.491Z,3.10
2023-08-12T22:14:31.256Z,2.40
2023-08-12T22:17:01.382Z,2.83
2023-08-12T22:19:30.117Z,2.53
2023-08-12T22:22:09.118Z,2.80
2023-08-12T22:24:46.733Z,1.93
2023-08-12T22:27:15.524Z,2.50
2023-08-12T22:29:44.205Z,2.17
2023-08-12T22:32:14.843Z,2.50
2023-08-12T22:34:43.971Z,2.37
2023-08-12T22:37:12.698Z,2.23
2023-08-12T22:39:41.960Z,2.30
2023-08-12T22:42:10.755Z,2.30
2023-08-12T22:44:39.489Z,2.33
2023-08-12T22:47:08.465Z,2.30
2023-08-12T22:49:38.583Z,2.10
2023-08-12T22:52:07.602Z,1.87
2023-08-12T22:54:36.352Z,3.60
2023-08-12T22:57:05.133Z,3.90
2023-08-12T22:59:33.888Z,2.60
2023-08-12T23:02:02.691Z,2.60
2023-08-12T23:04:31.417Z,2.03
2023-08-12T23:07:01.514Z,1.97
2023-08-12T23:09:30.253Z,3.23
2023-08-12T23:11:58.993Z,2.50
2023-08-12T23:14:27.789Z,2.10
2023-08-12T23:16:57.356Z,2.43
2023-08-12T23:19:26.143Z,2.73
2023-08-12T23:21:54.832Z,2.50
2023-08-12T23:24:24.954Z,2.33
2023-08-12T23:26:53.674Z,2.37
2023-08-12T23:29:22.415Z,2.50
2023-08-12T23:31:51.105Z,2.47
2023-08-12T23:34:19.846Z,2.63
2023-08-12T23:36:48.709Z,2.20
2023-08-12T23:39:17.547Z,2.07
2023-08-12T23:41:47.682Z,1.93
2023-08-12T23:44:16.420Z,2.73
2023-08-12T23:46:45.834Z,2.80
2023-08-12T23:49:14.686Z,2.43
2023-08-12T23:51:43.726Z,2.80
2023-08-12T23:54:12.462Z,3.10
2023-08-12T23:56:41.237Z,2.77
2023-08-12T23:59:11.387Z,3.67
